createdAt,value
2023-02-17T00:01:01.512Z,8.70
2023-02-17T00:03:28.815Z,8.70
2023-02-17T00:05:57.362Z,8.70
2023-02-17T00:08:24.553Z,8.70
2023-02-17T00:10:58.701Z,8.80
2023-02-17T00:13:26.390Z,8.80
2023-02-17T00:15:53.974Z,8.80
2023-02-17T00:18:21.582Z,8.80
2023-02-17T00:20:48.971Z,8.80
2023-02-17T00:23:18.040Z,8.80
2023-02-17T00:25:45.253Z,8.80
2023-02-17T00:28:12.431Z,8.80
2023-02-17T00:30:39.678Z,8.70
2023-02-17T00:33:06.909Z,8.70
2023-02-17T00:35:34.300Z,8.80
2023-02-17T00:38:01.516Z,8.80
2023-02-17T00:40:30.066Z,8.80
2023-02-17T00:42:57.244Z,8.90
2023-02-17T00:45:25.629Z,8.80
2023-02-17T00:47:52.816Z,8.70
2023-02-17T00:50:20.186Z,8.70
2023-02-17T00:52:47.395Z,8.60
2023-02-17T00:55:14.626Z,8.60
2023-02-17T00:57:43.156Z,8.60
2023-02-17T01:00:11.226Z,8.70
2023-02-17T01:02:38.404Z,8.60
2023-02-17T01:05:06.683Z,8.70
2023-02-17T01:07:33.896Z,8.70
2023-02-17T01:10:01.120Z,8.60
2023-02-17T01:12:28.376Z,8.60
2023-02-17T01:14:56.888Z,8.70
2023-02-17T01:17:24.113Z,8.70
2023-02-17T01:19:51.367Z,8.60
2023-02-17T01:22:18.625Z,8.60
2023-02-17T01:24:45.909Z,8.70
2023-02-17T01:27:13.121Z,8.70
2023-02-17T01:29:40.421Z,8.70
2023-02-17T01:32:08.932Z,8.70
2023-02-17T01:34:36.917Z,8.60
2023-02-17T01:37:04.538Z,8.70
2023-02-17T01:39:35.342Z,8.70
2023-02-17T01:42:02.546Z,8.60
2023-02-17T01:44:32.082Z,8.50
2023-02-17T01:46:59.255Z,8.50
2023-02-17T01:49:35.626Z,8.60
2023-02-17T01:52:08.285Z,8.60
2023-02-17T01:54:41.106Z,8.60
2023-02-17T01:57:11.531Z,8.60
2023-02-17T01:59:40.289Z,8.60
2023-02-17T02:02:08.433Z,8.50
2023-02-17T02:04:40.670Z,8.50
2023-02-17T02:07:14.001Z,8.50
2023-02-17T02:09:47.172Z,8.50
2023-02-17T02:12:19.472Z,8.50
2023-02-17T02:14:47.200Z,8.50
2023-02-17T02:17:23.881Z,8.50
2023-02-17T02:20:33.637Z,8.50
2023-02-17T02:23:38.527Z,8.60
2023-02-17T02:26:41.689Z,8.50
2023-02-17T02:29:29.899Z,8.50
2023-02-17T02:32:09.287Z,8.40
2023-02-17T02:34:43.241Z,8.40
2023-02-17T02:37:14.986Z,8.40
2023-02-17T02:39:46.486Z,8.30
2023-02-17T02:42:16.606Z,8.40
2023-02-17T02:44:43.858Z,8.40
2023-02-17T02:47:49.697Z,8.40
2023-02-17T02:50:28.354Z,8.30
2023-02-17T02:53:13.076Z,8.30
2023-02-17T02:55:52.436Z,8.20
2023-02-17T02:58:24.064Z,8.10
2023-02-17T03:00:59.847Z,8.10
2023-02-17T03:03:41.313Z,8.20
2023-02-17T03:06:16.970Z,8.10
2023-02-17T03:08:51.040Z,8.10
2023-02-17T03:11:32.202Z,8.10
2023-02-17T03:14:02.348Z,8.10
2023-02-17T03:16:30.390Z,8.10
2023-02-17T03:18:57.735Z,8.20
2023-02-17T03:21:40.046Z,8.10
2023-02-17T03:24:08.554Z,8.10
2023-02-17T03:26:35.812Z,8.10
2023-02-17T03:29:03.106Z,8.10
2023-02-17T03:31:30.979Z,7.90
2023-02-17T03:33:58.427Z,8.00
2023-02-17T03:36:27.226Z,8.00
2023-02-17T03:38:54.445Z,8.00
2023-02-17T03:41:21.881Z,8.10
2023-02-17T03:43:49.111Z,8.10
2023-02-17T03:46:17.700Z,8.20
2023-02-17T03:48:45.065Z,8.20
2023-02-17T03:51:14.227Z,8.10
2023-02-17T03:53:43.993Z,8.00
2023-02-17T03:56:11.528Z,8.10
2023-02-17T03:58:39.406Z,8.10
2023-02-17T04:01:08.219Z,8.10
2023-02-17T04:03:36.346Z,8.10
2023-02-17T04:06:05.310Z,8.10
2023-02-17T04:08:33.300Z,8.10
2023-02-17T04:11:03.541Z,8.10
2023-02-17T04:13:31.299Z,8.10
2023-02-17T04:15:58.833Z,8.00
2023-02-17T04:18:26.094Z,8.00
2023-02-17T04:20:54.090Z,8.00
2023-02-17T04:23:21.349Z,8.00
2023-02-17T04:25:49.212Z,8.10
2023-02-17T04:28:18.221Z,8.00
2023-02-17T04:30:47.061Z,8.00
2023-02-17T04:33:14.730Z,8.00
2023-02-17T04:35:42.631Z,8.00
2023-02-17T04:38:10.723Z,7.90
2023-02-17T04:40:38.122Z,8.00
2023-02-17T04:43:05.334Z,8.00
2023-02-17T04:45:34.025Z,8.00
2023-02-17T04:48:01.213Z,8.00
2023-02-17T04:50:28.743Z,8.00
2023-02-17T04:52:55.964Z,8.00
2023-02-17T04:55:23.175Z,8.00
2023-02-17T04:57:50.360Z,8.00
2023-02-17T05:00:19.173Z,8.10
2023-02-17T05:02:47.698Z,8.10
2023-02-17T05:05:15.396Z,8.10
2023-02-17T05:07:43.046Z,8.10
2023-02-17T05:10:10.688Z,8.10
2023-02-17T05:12:37.972Z,8.10
2023-02-17T05:15:06.397Z,8.10
2023-02-17T05:17:33.957Z,8.20
2023-02-17T05:20:03.022Z,8.10
2023-02-17T05:22:30.264Z,8.00
2023-02-17T05:24:57.507Z,8.10
2023-02-17T05:27:24.914Z,8.10
2023-02-17T05:29:52.134Z,8.00
2023-02-17T05:32:19.344Z,8.00
2023-02-17T05:34:46.534Z,8.00
2023-02-17T05:37:15.293Z,8.10
2023-02-17T05:39:43.100Z,8.10
2023-02-17T05:42:10.307Z,8.00
2023-02-17T05:44:37.511Z,8.00
2023-02-17T05:47:04.960Z,8.10
2023-02-17T05:49:32.150Z,8.10
2023-02-17T05:51:59.389Z,8.10
2023-02-17T05:54:27.923Z,8.10
2023-02-17T05:56:55.132Z,8.10
2023-02-17T05:59:22.576Z,8.20
2023-02-17T06:01:49.795Z,8.20
2023-02-17T06:04:17.000Z,8.20
2023-02-17T06:06:44.225Z,8.10
2023-02-17T06:09:11.465Z,8.10
2023-02-17T06:11:40.023Z,8.10
2023-02-17T06:14:07.221Z,8.10
2023-02-17T06:16:34.474Z,8.10
2023-02-17T06:19:02.537Z,8.10
2023-02-17T06:21:29.739Z,8.10
2023-02-17T06:23:57.129Z,8.10
2023-02-17T06:26:24.442Z,8.20
2023-02-17T06:28:52.944Z,8.20
2023-02-17T06:31:20.222Z,8.30
2023-02-17T06:33:48.181Z,8.20
2023-02-17T06:36:15.371Z,8.20
2023-02-17T06:38:42.571Z,8.20
2023-02-17T06:41:10.060Z,8.30
2023-02-17T06:43:37.313Z,8.30
2023-02-17T06:46:06.394Z,8.40
2023-02-17T06:48:33.893Z,8.40
2023-02-17T06:51:01.328Z,8.40
2023-02-17T06:53:28.555Z,8.40
2023-02-17T06:55:56.007Z,8.30
2023-02-17T06:58:23.221Z,8.30
2023-02-17T07:00:51.535Z,8.30
2023-02-17T07:03:20.056Z,8.40
2023-02-17T07:05:47.380Z,8.40
2023-02-17T07:08:14.630Z,8.40
2023-02-17T07:10:41.938Z,8.40
2023-02-17T07:13:09.138Z,8.50
2023-02-17T07:15:36.386Z,8.50
2023-02-17T07:18:03.692Z,8.50
2023-02-17T07:20:32.440Z,8.50
2023-02-17T07:22:59.738Z,8.50
2023-02-17T07:25:26.986Z,8.60
2023-02-17T07:27:54.178Z,8.60
2023-02-17T07:30:21.604Z,8.70
2023-02-17T07:32:48.817Z,8.60
2023-02-17T07:35:16.129Z,8.70
2023-02-17T07:37:44.644Z,8.70
2023-02-17T07:40:12.562Z,8.70
2023-02-17T07:42:39.869Z,8.70
2023-02-17T07:45:08.232Z,8.70
2023-02-17T07:47:35.441Z,8.80
2023-02-17T07:50:02.926Z,8.80
2023-02-17T07:52:30.161Z,8.90
2023-02-17T07:54:58.686Z,8.90
2023-02-17T07:57:26.017Z,8.90
2023-02-17T07:59:53.308Z,8.90
2023-02-17T08:02:20.715Z,8.90
2023-02-17T08:04:48.012Z,8.90
2023-02-17T08:07:15.425Z,9.00
2023-02-17T08:10:01.543Z,9.00
2023-02-17T08:12:48.928Z,9.00
2023-02-17T08:15:16.188Z,9.00
2023-02-17T08:17:44.388Z,9.10
2023-02-17T08:20:13.414Z,9.10
2023-02-17T08:22:40.683Z,9.00
2023-02-17T08:25:08.326Z,9.10
2023-02-17T08:27:36.870Z,9.00
2023-02-17T08:30:05.072Z,9.10
2023-02-17T08:32:32.300Z,9.10
2023-02-17T08:34:59.541Z,9.10
2023-02-17T08:37:26.774Z,9.20
2023-02-17T08:39:53.963Z,9.20
2023-02-17T08:42:21.238Z,9.20
2023-02-17T08:44:49.748Z,9.20
2023-02-17T08:47:16.975Z,9.20
2023-02-17T08:49:44.217Z,9.30
2023-02-17T08:52:11.485Z,9.30
2023-02-17T08:54:39.288Z,9.30
2023-02-17T08:57:06.585Z,9.30
2023-02-17T08:59:33.804Z,9.30
2023-02-17T09:02:02.449Z,9.40
2023-02-17T09:04:29.757Z,9.40
2023-02-17T09:06:57.156Z,9.40
2023-02-17T09:09:26.889Z,9.50
2023-02-17T09:11:55.565Z,9.50
2023-02-17T09:14:26.183Z,9.50
2023-02-17T09:16:54.878Z,9.50
2023-02-17T09:19:24.130Z,9.50
2023-02-17T09:21:51.422Z,9.40
2023-02-17T09:24:19.083Z,9.50
2023-02-17T09:26:46.326Z,9.50
2023-02-17T09:29:13.587Z,9.50
2023-02-17T09:31:41.005Z,9.40
2023-02-17T09:34:08.256Z,9.40
2023-02-17T09:36:39.680Z,9.50
2023-02-17T09:39:07.021Z,9.40
2023-02-17T09:41:39.586Z,9.40
2023-02-17T09:44:17.085Z,9.40
2023-02-17T09:47:00.987Z,9.40
2023-02-17T09:49:34.996Z,9.40
2023-02-17T09:52:09.471Z,9.50
2023-02-17T09:54:43.995Z,9.50
2023-02-17T09:57:19.651Z,9.60
2023-02-17T09:59:52.702Z,9.50
2023-02-17T10:02:25.429Z,9.50
2023-02-17T10:04:54.115Z,9.50
2023-02-17T10:07:29.295Z,9.50
2023-02-17T10:10:05.527Z,9.40
2023-02-17T10:12:38.584Z,9.40
2023-02-17T10:15:12.463Z,9.50
2023-02-17T10:17:46.503Z,9.50
2023-02-17T10:20:17.763Z,9.50
2023-02-17T10:22:51.176Z,9.50
2023-02-17T10:25:22.495Z,9.50
2023-02-17T10:27:59.767Z,9.50
2023-02-17T10:30:34.460Z,9.50
2023-02-17T10:33:11.466Z,9.60
2023-02-17T10:35:50.314Z,9.70
2023-02-17T10:38:33.329Z,9.60
2023-02-17T10:41:03.544Z,9.70
2023-02-17T10:43:32.979Z,9.70
2023-02-17T10:46:02.813Z,9.60
2023-02-17T10:48:38.456Z,9.60
2023-02-17T10:51:06.402Z,9.60
2023-02-17T10:53:38.086Z,9.70
2023-02-17T10:56:10.312Z,9.70
2023-02-17T10:58:50.061Z,9.70
2023-02-17T11:01:17.467Z,9.70
2023-02-17T11:03:44.754Z,9.70
2023-02-17T11:06:18.773Z,9.80
2023-02-17T11:08:51.695Z,9.80
2023-02-17T11:11:21.613Z,9.80
2023-02-17T11:14:03.176Z,9.80
2023-02-17T11:16:35.943Z,9.80
2023-02-17T11:19:04.384Z,9.80
2023-02-17T11:21:33.240Z,9.80
2023-02-17T11:24:04.132Z,9.80
2023-02-17T11:26:33.821Z,9.90
2023-02-17T11:29:08.680Z,9.90
2023-02-17T11:31:36.024Z,9.90
2023-02-17T11:34:14.600Z,9.90
2023-02-17T11:36:45.183Z,9.90
2023-02-17T11:39:21.636Z,10.00
2023-02-17T11:41:49.256Z,10.00
2023-02-17T11:44:24.778Z,10.00
2023-02-17T11:47:04.616Z,10.10
2023-02-17T11:49:58.131Z,10.10
2023-02-17T11:52:43.612Z,10.10
2023-02-17T11:55:21.343Z,10.20
2023-02-17T11:58:01.631Z,10.20
2023-02-17T12:00:37.955Z,10.20
2023-02-17T12:03:36.902Z,10.30
2023-02-17T12:06:10.862Z,10.30
2023-02-17T12:08:49.790Z,10.30
2023-02-17T12:11:27.116Z,10.30
2023-02-17T12:14:09.271Z,10.40
2023-02-17T12:16:46.265Z,10.50
2023-02-17T12:19:29.822Z,10.50
2023-02-17T12:22:03.274Z,10.50
2023-02-17T12:24:43.165Z,10.60
2023-02-17T12:27:27.124Z,10.50
2023-02-17T12:30:09.845Z,10.60
2023-02-17T12:33:00.250Z,10.60
2023-02-17T12:35:36.757Z,10.70
2023-02-17T12:38:12.182Z,10.70
2023-02-17T12:40:45.145Z,10.80
2023-02-17T12:43:24.027Z,10.80
2023-02-17T12:45:52.322Z,10.80
2023-02-17T12:48:26.915Z,10.80
2023-02-17T12:51:00.217Z,10.90
2023-02-17T12:53:40.489Z,11.00
2023-02-17T12:56:31.263Z,11.00
2023-02-17T12:59:11.634Z,11.10
2023-02-17T13:01:48.461Z,11.10
2023-02-17T13:04:18.477Z,11.10
2023-02-17T13:06:50.806Z,11.20
2023-02-17T13:09:27.185Z,11.20
2023-02-17T13:11:54.447Z,11.30
2023-02-17T13:14:28.192Z,11.30
2023-02-17T13:16:56.120Z,11.40
2023-02-17T13:19:30.743Z,11.40
2023-02-17T13:21:59.975Z,11.40
2023-02-17T13:24:35.242Z,11.40
2023-02-17T13:27:12.834Z,11.50
2023-02-17T13:29:41.677Z,11.50
2023-02-17T13:32:12.217Z,11.50
2023-02-17T13:34:42.843Z,11.50
2023-02-17T13:37:23.499Z,11.60
2023-02-17T13:39:51.286Z,11.60
2023-02-17T13:42:37.583Z,11.60
2023-02-17T13:45:21.832Z,11.60
2023-02-17T13:47:51.208Z,11.70
2023-02-17T13:50:30.946Z,11.70
2023-02-17T13:52:59.698Z,11.70
2023-02-17T13:55:27.133Z,11.80
2023-02-17T13:57:56.221Z,11.80
2023-02-17T14:00:29.232Z,11.90
2023-02-17T14:02:57.889Z,11.80
2023-02-17T14:05:35.112Z,11.90
2023-02-17T14:08:06.451Z,11.90
2023-02-17T14:10:34.642Z,11.90
2023-02-17T14:13:01.942Z,11.90
2023-02-17T14:15:31.529Z,11.90
2023-02-17T14:17:58.813Z,12.00
2023-02-17T14:20:28.559Z,12.00
2023-02-17T14:23:04.792Z,12.00
2023-02-17T14:25:35.005Z,12.00
2023-02-17T14:28:02.452Z,12.10
2023-02-17T14:30:33.592Z,12.10
2023-02-17T14:33:03.473Z,12.10
2023-02-17T14:35:32.571Z,12.10
2023-02-17T14:38:20.943Z,12.10
2023-02-17T14:40:48.703Z,12.20
2023-02-17T14:43:16.066Z,12.20
2023-02-17T14:45:45.160Z,12.20
2023-02-17T14:48:12.519Z,12.20
2023-02-17T14:50:42.337Z,12.20
2023-02-17T14:53:13.871Z,12.20
2023-02-17T14:55:46.182Z,12.20
2023-02-17T14:58:18.674Z,12.20
2023-02-17T15:00:47.393Z,12.10
2023-02-17T15:03:14.960Z,12.10
2023-02-17T15:05:42.278Z,12.00
2023-02-17T15:08:12.924Z,12.00
2023-02-17T15:10:40.574Z,12.00
2023-02-17T15:13:13.540Z,12.00
2023-02-17T15:15:44.709Z,11.90
2023-02-17T15:18:15.853Z,11.90
2023-02-17T15:20:45.623Z,11.80
2023-02-17T15:23:14.873Z,11.80
2023-02-17T15:25:42.879Z,11.80
2023-02-17T15:28:12.659Z,11.70
2023-02-17T15:30:39.973Z,11.70
2023-02-17T15:33:11.444Z,11.70
2023-02-17T15:35:40.762Z,11.60
2023-02-17T15:38:11.076Z,11.60
2023-02-17T15:40:39.038Z,11.60
2023-02-17T15:43:06.555Z,11.60
2023-02-17T15:45:34.273Z,11.60
2023-02-17T15:48:04.381Z,11.50
2023-02-17T15:50:32.105Z,11.50
2023-02-17T15:53:00.706Z,11.50
2023-02-17T15:55:35.884Z,11.50
2023-02-17T15:58:05.389Z,11.50
2023-02-17T16:00:35.544Z,11.50
2023-02-17T16:03:03.038Z,11.50
2023-02-17T16:05:30.665Z,11.50
2023-02-17T16:07:57.941Z,11.50
2023-02-17T16:10:29.945Z,11.50
2023-02-17T16:12:59.400Z,11.50
2023-02-17T16:15:29.829Z,11.50
2023-02-17T16:17:57.672Z,11.50
2023-02-17T16:20:26.632Z,11.50
2023-02-17T16:22:56.554Z,11.50
2023-02-17T16:25:24.181Z,11.50
2023-02-17T16:27:53.405Z,11.50
2023-02-17T16:30:22.617Z,11.40
2023-02-17T16:32:52.566Z,11.50
2023-02-17T16:35:21.825Z,11.50
2023-02-17T16:37:53.736Z,11.50
2023-02-17T16:40:23.300Z,11.50
2023-02-17T16:42:52.133Z,11.50
2023-02-17T16:45:21.125Z,11.50
2023-02-17T16:47:52.008Z,11.50
2023-02-17T16:50:24.709Z,11.50
2023-02-17T16:52:53.379Z,11.50
2023-02-17T16:55:23.494Z,11.50
2023-02-17T16:57:52.198Z,11.50
2023-02-17T17:00:22.061Z,11.50
2023-02-17T17:02:49.750Z,11.50
2023-02-17T17:05:19.293Z,11.50
2023-02-17T17:07:47.199Z,11.60
2023-02-17T17:10:17.358Z,11.50
2023-02-17T17:12:46.034Z,11.60
2023-02-17T17:15:16.719Z,11.60
2023-02-17T17:17:47.465Z,11.60
2023-02-17T17:20:17.056Z,11.60
2023-02-17T17:22:44.471Z,11.60
2023-02-17T17:25:11.710Z,11.60
2023-02-17T17:27:39.019Z,11.60
2023-02-17T17:30:08.317Z,11.60
2023-02-17T17:32:36.945Z,11.60
2023-02-17T17:35:04.509Z,11.60
2023-02-17T17:37:31.672Z,11.60
2023-02-17T17:39:58.923Z,11.50
2023-02-17T17:42:26.362Z,11.60
2023-02-17T17:44:53.559Z,11.50
2023-02-17T17:47:29.397Z,11.50
2023-02-17T17:49:58.933Z,11.50
2023-02-17T17:52:26.187Z,11.50
2023-02-17T17:54:53.393Z,11.50
2023-02-17T17:57:22.393Z,11.50
2023-02-17T17:59:49.668Z,11.50
2023-02-17T18:02:16.934Z,11.50
2023-02-17T18:04:44.268Z,11.50
2023-02-17T18:07:12.912Z,11.50
2023-02-17T18:09:40.435Z,11.60
2023-02-17T18:12:09.941Z,11.60
2023-02-17T18:14:38.817Z,11.60
2023-02-17T18:17:07.536Z,11.50
2023-02-17T18:19:34.890Z,11.60
2023-02-17T18:22:02.134Z,11.60
2023-02-17T18:24:30.676Z,11.40
2023-02-17T18:26:58.370Z,11.30
2023-02-17T18:29:25.590Z,11.20
2023-02-17T18:31:53.152Z,11.20
2023-02-17T18:34:20.351Z,11.20
2023-02-17T18:36:47.542Z,11.10
2023-02-17T18:39:14.756Z,11.10
2023-02-17T18:41:43.534Z,11.20
2023-02-17T18:44:11.474Z,11.10
2023-02-17T18:46:39.043Z,11.10
2023-02-17T18:49:06.720Z,11.10
2023-02-17T18:51:34.194Z,11.00
2023-02-17T18:54:02.427Z,11.00
2023-02-17T18:56:32.562Z,11.00
2023-02-17T18:59:01.396Z,10.90
2023-02-17T19:01:31.268Z,10.90
2023-02-17T19:03:59.361Z,10.80
2023-02-17T19:06:28.292Z,10.80
2023-02-17T19:08:56.421Z,10.70
2023-02-17T19:11:24.755Z,10.60
2023-02-17T19:13:52.513Z,10.60
2023-02-17T19:16:24.263Z,10.60
2023-02-17T19:18:52.271Z,10.60
2023-02-17T19:21:20.024Z,10.50
2023-02-17T19:23:47.857Z,10.40
2023-02-17T19:26:16.440Z,10.40
2023-02-17T19:28:44.072Z,10.30
2023-02-17T19:31:15.256Z,10.30
2023-02-17T19:33:45.580Z,10.20
2023-02-17T19:36:15.241Z,10.10
2023-02-17T19:38:42.829Z,10.00
2023-02-17T19:41:11.807Z,10.00
2023-02-17T19:43:39.239Z,9.90
2023-02-17T19:46:06.920Z,9.90
2023-02-17T19:48:34.503Z,9.90
2023-02-17T19:51:05.269Z,9.80
2023-02-17T19:53:33.259Z,9.80
2023-02-17T19:56:10.455Z,9.80
2023-02-17T19:58:39.260Z,9.70
2023-02-17T20:01:07.448Z,9.70
2023-02-17T20:03:35.354Z,9.60
2023-02-17T20:06:09.241Z,9.60
2023-02-17T20:08:37.391Z,9.60
2023-02-17T20:11:07.696Z,9.50
2023-02-17T20:13:45.238Z,9.50
2023-02-17T20:16:15.552Z,9.40
2023-02-17T20:18:45.331Z,9.40
2023-02-17T20:21:16.480Z,9.30
2023-02-17T20:23:43.916Z,9.30
2023-02-17T20:26:13.011Z,9.30
2023-02-17T20:28:40.627Z,9.20
2023-02-17T20:31:08.948Z,9.10
2023-02-17T20:33:36.784Z,9.20
2023-02-17T20:36:05.358Z,9.20
2023-02-17T20:38:34.595Z,9.20
2023-02-17T20:41:01.813Z,9.10
2023-02-17T20:43:28.998Z,9.10
2023-02-17T20:45:56.678Z,9.00
2023-02-17T20:48:27.490Z,9.00
2023-02-17T20:50:54.979Z,8.90
2023-02-17T20:53:22.727Z,8.80
2023-02-17T20:55:51.802Z,8.80
2023-02-17T20:58:19.365Z,8.80
2023-02-17T21:00:47.413Z,8.80
2023-02-17T21:03:14.806Z,8.80
2023-02-17T21:05:42.053Z,8.70
2023-02-17T21:08:09.291Z,8.70
2023-02-17T21:10:36.855Z,8.70
2023-02-17T21:13:05.401Z,8.70
2023-02-17T21:15:33.357Z,8.70
2023-02-17T21:18:00.664Z,8.60
2023-02-17T21:20:27.987Z,8.60
2023-02-17T21:22:55.217Z,8.60
2023-02-17T21:25:22.480Z,8.60
2023-02-17T21:27:49.695Z,8.50
2023-02-17T21:30:18.642Z,8.40
2023-02-17T21:32:45.855Z,8.30
2023-02-17T21:35:13.067Z,8.40
2023-02-17T21:37:40.294Z,8.30
2023-02-17T21:40:08.708Z,8.30
2023-02-17T21:42:55.260Z,8.30
2023-02-17T21:45:24.449Z,8.30
2023-02-17T21:47:51.901Z,8.30
2023-02-17T21:50:19.588Z,8.30
2023-02-17T21:52:46.830Z,8.30
2023-02-17T21:55:14.091Z,8.30
2023-02-17T21:57:41.283Z,8.30
2023-02-17T22:00:09.256Z,8.20
2023-02-17T22:02:42.033Z,8.10
2023-02-17T22:05:10.914Z,8.10
2023-02-17T22:07:38.119Z,8.10
2023-02-17T22:10:06.818Z,8.10
2023-02-17T22:12:35.487Z,8.10
2023-02-17T22:15:04.665Z,8.10
2023-02-17T22:17:32.165Z,8.10
2023-02-17T22:20:00.734Z,8.10
2023-02-17T22:22:27.931Z,8.10
2023-02-17T22:24:55.314Z,8.10
2023-02-17T22:27:22.587Z,8.10
2023-02-17T22:29:49.926Z,8.10
2023-02-17T22:32:17.150Z,8.10
2023-02-17T22:34:44.405Z,8.00
2023-02-17T22:37:12.967Z,8.00
2023-02-17T22:39:40.157Z,8.00
2023-02-17T22:42:07.380Z,8.00
2023-02-17T22:44:34.531Z,8.00
2023-02-17T22:47:01.753Z,8.00
2023-02-17T22:49:28.990Z,8.00
2023-02-17T22:51:56.222Z,8.00
2023-02-17T22:54:24.894Z,8.00
2023-02-17T22:56:52.216Z,7.90
2023-02-17T22:59:19.405Z,7.90
2023-02-17T23:01:46.676Z,7.90
2023-02-17T23:04:14.983Z,7.90
2023-02-17T23:06:43.253Z,7.80
2023-02-17T23:09:14.188Z,7.70
2023-02-17T23:11:54.931Z,7.70
2023-02-17T23:14:25.731Z,7.70
2023-02-17T23:16:54.453Z,7.70
2023-02-17T23:19:22.573Z,7.70
2023-02-17T23:21:52.265Z,7.70
2023-02-17T23:24:20.605Z,7.70
2023-02-17T23:26:50.222Z,7.70
2023-02-17T23:29:18.322Z,7.80
2023-02-17T23:31:45.527Z,7.70
2023-02-17T23:34:14.117Z,7.70
2023-02-17T23:36:42.949Z,7.70
2023-02-17T23:39:10.801Z,7.70
2023-02-17T23:41:39.340Z,7.70
2023-02-17T23:44:10.158Z,7.60
2023-02-17T23:46:38.654Z,7.60
2023-02-17T23:49:06.020Z,7.50
2023-02-17T23:51:33.368Z,7.60
2023-02-17T23:54:00.607Z,7.60
2023-02-17T23:56:30.659Z,7.60
2023-02-17T23:58:58.058Z,7.60
